Chapin, Illinois
Current Conditions -  °F | °C
As of 4:55 PM on Friday 28 Nov 2014 (Local Time) from KIJX Reporting Station
Clear Clear  
Wind Chill: 33°   Ceiling: Unl
Heat Index: 40°   Visibility: 10mi
Dew Point: 34°   Wind: 10mph
Humidity: 80%   Direction: 140°SE
Pressure: 29.91"   Gusts: NA
Location:  39.77°N, 90.4°W
Report Text: KIJX 282255Z AUTO 14009KT 10SM CLR 04/01 A2991 RMK AO2 T00420011
Loading
Personal Weather Stations






























Interactive Weather Map New forecast layout! Learn more

10-Day Weather Forecast

Advertisements
Track Severe Weather on mobile